• Join FlightAware (Why Join?)
  • Login
  • US Flag 
08:00AM EDT


 

Airport Tracker/Info


-or-


 

Live Flight TrackerFlight Track Log ✈ UAL6183 ✈ 09-May-2013 ✈ KDEN - KLBB

Flight Track Log - Related Links

Times and Time Zones

All times are in EDT time to prevent confusion due to time zone crossing. See the UAL6183 flight status page for this flight to view local times or setup timezone preferences in your user account.

Time Position Orientation Groundspeed Altitude Reporting Facility
EDT Latitude Longitude Course Direction KTS MPH feet Rate Location/Type
01:42PM 39.8333 -104.8000 161° South 207 238 7,600  Level Denver TRACON
01:43PM 39.7833 -104.8667 226° Southwest 279 321 9,500 1,920 Climbing Denver TRACON
01:44PM 39.7000 -104.9000 197° South 302 348 11,700 2,040 Climbing Denver TRACON
01:45PM 39.6275 -104.9153 189° South 308 354 13,600 1,920 Climbing Denver Center
01:46PM 39.5358 -104.8883 167° South 315 362 15,600 1,620 Climbing Denver Center
01:47PM 39.3781 -104.4318 161° South  Level Estimated
01:47PM 39.4464 -104.8614 167° South 330 380 17,000  Level Denver Center
01:48PM 39.3456 -104.8308 167° South 344 396 18,300 1,200 Climbing Denver Center
01:49PM 39.2461 -104.8006 167° South 369 425 19,600 1,200 Climbing Denver Center
01:50PM 39.1597 -104.7733 166° South 377 434 20,900 1,380 Climbing Denver Center
01:51PM 39.0428 -104.7419 168° South 376 433 22,500 960 Climbing Denver Center
01:52PM 38.9264 -104.6917 161° South 395 455 23,000 240 Climbing Denver Center
01:53PM 38.8236 -104.6433 160° South 403 464 23,000  Level Denver Center
01:54PM 38.6964 -104.5906 162° South 420 483 23,000  Level Denver Center
01:55PM 38.5858 -104.5467 163° South 429 494 23,000  Level Denver Center
01:56PM 38.4544 -104.4936 162° South 438 504 23,000  Level Denver Center
01:57PM 38.3411 -104.4478 162° South 442 509 23,000  Level Denver Center
01:58PM 38.2200 -104.3669 152° Southeast 440 506 23,000  Level Denver Center
01:59PM 38.1228 -104.2903 148° Southeast 429 494 23,000  Level Denver Center
02:00PM 38.0156 -104.1878 143° Southeast 431 496 23,000  Level Denver Center
02:01PM 37.9306 -104.0897 138° Southeast 429 494 23,000  Level Denver Center
02:02PM 37.8314 -103.9744 137° Southeast 431 496 23,000  Level Denver Center
02:03PM 37.7481 -103.8747 137° Southeast 428 493 23,000  Level Denver Center
02:04PM 37.6558 -103.7839 142° Southeast 432 497 23,000  Level Denver Center
02:05PM 37.5286 -103.7267 160° South 428 493 23,000  Level Denver Center
02:06PM 37.4169 -103.6925 166° South 428 493 23,000  Level Denver Center
02:08PM 37.3247 -103.6644 166° South 425 489 23,000  Level Denver Center
02:09PM 37.1778 -103.6200 166° South 424 488 23,000  Level Denver Center
02:09PM 37.1231 -103.6047 167° South 422 486 23,000  Level Albuquerque Center
02:10PM 37.0136 -103.5717 166° South 421 484 23,000  Level Albuquerque Center
02:11PM 36.9042 -103.5394 167° South 421 484 23,000  Level Albuquerque Center
02:12PM 36.7761 -103.5008 166° South 422 486 23,000  Level Albuquerque Center
02:13PM 36.6642 -103.4697 167° South 427 491 23,000  Level Albuquerque Center
02:14PM 36.5394 -103.4311 166° South 437 503 23,000  Level Albuquerque Center
02:15PM 36.4192 -103.3958 167° South 439 505 23,000  Level Albuquerque Center
02:16PM 36.3006 -103.3594 166° South 436 502 23,000  Level Albuquerque Center
02:17PM 36.1839 -103.3253 167° South 428 493 23,000  Level Albuquerque Center
02:18PM 36.0442 -103.2839 167° South 437 503 23,000  Level Albuquerque Center
02:19PM 35.9253 -103.2497 167° South 435 501 23,000  Level Albuquerque Center
02:20PM 35.8056 -103.2150 167° South 437 503 23,000  Level Albuquerque Center
02:21PM 35.6858 -103.1803 167° South 436 502 23,000  Level Albuquerque Center
02:22PM 35.5656 -103.1453 167° South 437 503 23,000  Level Albuquerque Center
02:23PM 35.4467 -103.1106 167° South 435 501 23,000  Level Albuquerque Center
02:24PM 35.3261 -103.0767 167° South 437 503 23,000  Level Albuquerque Center
02:25PM 35.2056 -103.0406 166° South 439 505 23,000  Level Albuquerque Center
02:26PM 35.0883 -103.0081 167° South 433 498 23,000  Level Albuquerque Center
02:28PM 34.9536 -102.9694 167° South 425 489 23,000  Level Albuquerque Center
02:29PM 34.8375 -102.9364 167° South 422 486 23,000  Level Albuquerque Center
02:30PM 34.7175 -102.9028 167° South 431 496 23,000  Level Albuquerque Center
02:31PM 34.5969 -102.8689 167° South 437 503 23,000  Level Albuquerque Center
02:32PM 34.4864 -102.8247 162° South 435 501 23,000 -540 Level Albuquerque Center
02:33PM 34.3944 -102.7228 138° Southeast 444 511 22,000 -1,740 Descending Albuquerque Center
02:34PM 34.3083 -102.6183 135° Southeast 440 506 19,500 -2,700 Descending Albuquerque Center
02:35PM 34.2097 -102.5028 136° Southeast 423 487 16,500 -2,460 Descending Albuquerque Center
02:36PM 34.1428 -102.4239 136° Southeast 407 468 14,500 -2,100 Descending Albuquerque Center
02:37PM 34.0661 -102.3342 136° Southeast 393 452 12,300 -2,220 Descending Albuquerque Center
02:37PM 34.0242 -102.2850 136° Southeast 362 417 11,400 -1,620 Descending Fort Worth Center
02:38PM 33.9761 -102.2347 139° Southeast 348 400 10,500 -1,200 Descending Fort Worth Center
02:38PM 33.9578 -102.2186 144° Southeast 306 352 10,200 -1,140 Descending Fort Worth Center
02:39PM 33.9139 -102.1686 137° Southeast 317 365 9,400 -1,200 Descending Fort Worth Center
02:39PM 33.8917 -102.1497 145° Southeast 283 326 8,900 -1,440 Descending Fort Worth Center
02:40PM 33.8536 -102.1078 138° Southeast 290 334 8,000 -1,320 Descending Fort Worth Center
02:40PM 33.8353 -102.0919 144° Southeast 283 326 7,700 -1,200 Descending Fort Worth Center
02:41PM 33.7933 -102.0444 137° Southeast 290 334 6,800 -1,200 Descending Fort Worth Center
02:41PM 33.7608 -102.0178 146° Southeast 280 322 6,300 -1,140 Descending Fort Worth Center
02:42PM 33.7350 -101.9867 135° Southeast 280 322 5,700 -1,020 Descending Fort Worth Center
02:42PM 33.7067 -101.9625 145° Southeast 255 293 5,300 -900 Descending Fort Worth Center
02:43PM 33.6847 -101.9339 133° Southeast 260 299 4,800 -720 Descending Fort Worth Center
02:43PM 33.6625 -101.9128 142° Southeast 206 237 4,600 -600 Descending Fort Worth Center
02:44PM 33.6614 -101.8853 93° East 191 220 4,200 -780 Descending Fort Worth Center
02:44PM 33.6600 -101.8653 95° East 146 168 3,900 -840 Descending Fort Worth Center
02:45PM 33.6631 -101.8356 83° East 159 183 3,400 -480 Descending Fort Worth Center
02:46PM 33.6525 -101.7850 104° East 154 177 3,200 -240 Descending Fort Worth Center
02:51PM 33.6460 -101.7850 279° West  Level FlightAware Approximate
02:58PM 33.6500 -101.8167 279° West  Level FlightAware Approximate
02:59PM 33.6637 -101.8206 279° West  Level Estimated
03:00PM 33.6637 -101.8206 279° West  Level Estimated
03:01PM 33.6637 -101.8206 279° West  Level Estimated
03:02PM 33.6637 -101.8206 279° West  Level Estimated
03:03PM 33.6637 -101.8206 279° West  Level Estimated
03:04PM 33.6637 -101.8206 279° West  Level Estimated
03:05PM 33.6637 -101.8206 279° West  Level Estimated
03:06PM 33.6637 -101.8206 279° West  Level Estimated